Airport ICAO


00:47 UTC

-1°C

Clear skies


An affordable passengers' Moving Map for your aircraft. Made for the iPad and the iPhone
More information here

LFPG Charles De Gaulle


Paris FRANCE   VFR CAVOK


METAR LFPG 230030Z 03009KT CAVOK M01/M05 Q1017 NOSIG 0h17min

TAF LFPG 222300Z 2300/2406 03010KT CAVOK TEMPO 2305/2317 05010G20KT TX04/2315Z TNM03/2306Z 1h47min





NOTAMS

OPEN